createdAt,value
2022-10-06T00:02:20.607Z,71.28
2022-10-06T00:04:49.814Z,71.36
2022-10-06T00:07:19.336Z,71.98
2022-10-06T00:09:48.465Z,71.95
2022-10-06T00:12:17.737Z,71.64
2022-10-06T00:14:48.265Z,71.76
2022-10-06T00:17:17.525Z,71.57
2022-10-06T00:19:46.593Z,71.56
2022-10-06T00:22:15.740Z,71.20
2022-10-06T00:24:44.890Z,71.16
2022-10-06T00:27:14.102Z,70.88
2022-10-06T00:29:43.630Z,71.00
2022-10-06T00:32:14.104Z,70.91
2022-10-06T00:34:44.226Z,70.68
2022-10-06T00:37:13.357Z,71.26
2022-10-06T00:39:42.832Z,71.05
2022-10-06T00:42:24.566Z,71.10
2022-10-06T00:44:54.809Z,70.73
2022-10-06T00:47:31.153Z,70.56
2022-10-06T00:50:02.835Z,71.30
2022-10-06T00:52:33.636Z,70.79
2022-10-06T00:55:04.327Z,70.67
2022-10-06T00:57:36.090Z,70.80
2022-10-06T01:00:06.338Z,70.74
2022-10-06T01:02:42.776Z,70.41
2022-10-06T01:05:18.716Z,70.51
2022-10-06T01:07:48.163Z,70.97
2022-10-06T01:10:17.471Z,70.83
2022-10-06T01:12:46.770Z,70.69
2022-10-06T01:15:17.401Z,70.73
2022-10-06T01:17:56.215Z,71.08
2022-10-06T01:20:26.359Z,70.97
2022-10-06T01:23:01.859Z,70.94
2022-10-06T01:25:32.384Z,70.98
2022-10-06T01:28:04.944Z,71.11
2022-10-06T01:30:42.767Z,71.10
2022-10-06T01:33:12.079Z,70.95
2022-10-06T01:35:42.123Z,71.50
2022-10-06T01:38:12.659Z,71.61
2022-10-06T01:40:42.407Z,71.86
2022-10-06T01:43:12.649Z,71.85
2022-10-06T01:45:41.808Z,71.95
2022-10-06T01:48:11.337Z,71.77
2022-10-06T01:50:42.605Z,72.28
2022-10-06T01:53:13.250Z,71.56
2022-10-06T01:55:42.653Z,72.20
2022-10-06T01:58:14.803Z,71.18
2022-10-06T02:00:44.239Z,72.11
2022-10-06T02:03:13.352Z,71.42
2022-10-06T02:05:44.296Z,71.29
2022-10-06T02:08:16.318Z,71.59
2022-10-06T02:10:46.260Z,71.68
2022-10-06T02:13:25.718Z,71.52
2022-10-06T02:15:58.006Z,71.24
2022-10-06T02:18:28.169Z,71.83
2022-10-06T02:20:57.512Z,71.64
2022-10-06T02:23:28.196Z,71.53
2022-10-06T02:26:01.481Z,71.94
2022-10-06T02:28:32.719Z,71.54
2022-10-06T02:31:05.360Z,71.84
2022-10-06T02:33:36.171Z,72.12
2022-10-06T02:36:08.380Z,71.92
2022-10-06T02:38:39.522Z,71.73
2022-10-06T02:41:11.416Z,71.75
2022-10-06T02:43:41.261Z,72.29
2022-10-06T02:46:14.477Z,72.75
2022-10-06T02:48:49.671Z,72.30
2022-10-06T02:51:21.670Z,72.54
2022-10-06T02:53:53.539Z,72.08
2022-10-06T02:56:24.818Z,72.44
2022-10-06T02:58:55.671Z,72.14
2022-10-06T03:01:34.649Z,72.33
2022-10-06T03:04:12.151Z,72.45
2022-10-06T03:06:43.666Z,73.04
2022-10-06T03:09:22.944Z,72.36
2022-10-06T03:11:53.610Z,72.27
2022-10-06T03:14:38.198Z,72.17
2022-10-06T03:17:10.032Z,72.61
2022-10-06T03:19:44.053Z,72.42
2022-10-06T03:22:14.081Z,72.26
2022-10-06T03:24:50.169Z,72.24
2022-10-06T03:27:19.266Z,72.51
2022-10-06T03:29:49.022Z,72.48
2022-10-06T03:32:18.592Z,72.74
2022-10-06T03:34:48.046Z,73.10
2022-10-06T03:37:19.447Z,72.89
2022-10-06T03:39:50.135Z,72.51
2022-10-06T03:42:20.116Z,73.28
2022-10-06T03:44:49.948Z,72.92
2022-10-06T03:47:19.280Z,72.85
2022-10-06T03:49:49.031Z,72.83
2022-10-06T03:52:22.425Z,73.04
2022-10-06T03:54:56.677Z,72.84
2022-10-06T03:57:26.156Z,73.52
2022-10-06T03:59:59.370Z,73.58
2022-10-06T04:02:28.777Z,73.51
2022-10-06T04:04:58.355Z,73.57
2022-10-06T04:07:27.674Z,73.81
2022-10-06T04:09:58.345Z,73.51
2022-10-06T04:12:27.564Z,73.36
2022-10-06T04:15:00.140Z,73.87
2022-10-06T04:17:30.976Z,74.44
2022-10-06T04:20:00.168Z,74.69
2022-10-06T04:22:29.560Z,74.82
2022-10-06T04:25:00.228Z,75.09
2022-10-06T04:27:29.568Z,75.21
2022-10-06T04:30:15.116Z,75.12
2022-10-06T04:32:45.749Z,75.14
2022-10-06T04:35:15.509Z,75.30
2022-10-06T04:37:45.010Z,75.21
2022-10-06T04:40:15.938Z,75.19
2022-10-06T04:42:45.930Z,75.88
2022-10-06T04:45:18.191Z,75.97
2022-10-06T04:47:50.898Z,76.00
2022-10-06T04:50:20.011Z,76.04
2022-10-06T04:53:06.660Z,75.87
2022-10-06T04:55:37.222Z,76.97
2022-10-06T04:58:06.580Z,77.50
2022-10-06T05:00:36.490Z,77.37
2022-10-06T05:03:05.787Z,77.40
2022-10-06T05:05:35.010Z,76.87
2022-10-06T05:08:04.318Z,76.76
2022-10-06T05:10:33.747Z,77.07
2022-10-06T05:13:06.150Z,76.87
2022-10-06T05:15:35.411Z,77.54
2022-10-06T05:18:05.745Z,77.27
2022-10-06T05:20:35.042Z,77.07
2022-10-06T05:23:08.340Z,77.26
2022-10-06T05:25:38.164Z,77.17
2022-10-06T05:28:08.919Z,77.75
2022-10-06T05:30:38.153Z,77.55
2022-10-06T05:33:11.032Z,77.65
2022-10-06T05:35:41.317Z,77.42
2022-10-06T05:38:11.815Z,77.81
2022-10-06T05:40:41.106Z,77.42
2022-10-06T05:43:11.791Z,77.24
2022-10-06T05:45:41.045Z,77.08
2022-10-06T05:48:10.890Z,77.09
2022-10-06T05:50:40.309Z,77.74
2022-10-06T05:53:09.600Z,77.99
2022-10-06T05:55:38.838Z,78.19
2022-10-06T05:58:08.020Z,78.08
2022-10-06T06:00:38.671Z,78.40
2022-10-06T06:03:10.934Z,78.42
2022-10-06T06:05:43.252Z,79.08
2022-10-06T06:08:12.683Z,79.52
2022-10-06T06:10:41.801Z,79.24
2022-10-06T06:13:11.221Z,79.63
2022-10-06T06:16:01.526Z,80.01
2022-10-06T06:18:32.664Z,80.02
2022-10-06T06:21:05.441Z,79.97
2022-10-06T06:23:37.899Z,81.25
2022-10-06T06:26:10.024Z,81.06
2022-10-06T06:28:46.415Z,80.32
2022-10-06T06:31:21.448Z,81.83
2022-10-06T06:33:55.108Z,81.94
2022-10-06T06:36:29.970Z,81.41
2022-10-06T06:39:00.245Z,81.29
2022-10-06T06:41:31.999Z,81.02
2022-10-06T06:44:11.681Z,81.67
2022-10-06T06:46:49.376Z,81.39
2022-10-06T06:49:22.092Z,81.55
2022-10-06T06:51:55.955Z,81.56
2022-10-06T06:54:27.781Z,81.61
2022-10-06T06:57:03.612Z,81.66
2022-10-06T06:59:34.137Z,81.73
2022-10-06T07:02:04.943Z,81.47
2022-10-06T07:04:38.158Z,81.16
2022-10-06T07:07:11.868Z,81.26
2022-10-06T07:09:41.193Z,80.76
2022-10-06T07:12:12.734Z,80.90
2022-10-06T07:15:08.060Z,80.91
2022-10-06T07:18:00.639Z,80.37
2022-10-06T07:20:48.785Z,80.56
2022-10-06T07:23:38.738Z,80.07
2022-10-06T07:26:12.800Z,79.98
2022-10-06T07:28:42.496Z,80.30
2022-10-06T07:31:12.959Z,79.91
2022-10-06T07:33:44.367Z,79.93
2022-10-06T07:36:14.124Z,79.30
2022-10-06T07:38:43.339Z,79.45
2022-10-06T07:41:19.363Z,78.84
2022-10-06T07:43:56.373Z,78.85
2022-10-06T07:46:28.363Z,78.43
2022-10-06T07:49:09.011Z,78.43
2022-10-06T07:51:39.072Z,78.38
2022-10-06T07:54:09.527Z,78.06
2022-10-06T07:56:49.116Z,78.05
2022-10-06T07:59:21.202Z,77.38
2022-10-06T08:01:52.573Z,77.34
2022-10-06T08:04:23.204Z,77.49
2022-10-06T08:06:52.442Z,77.24
2022-10-06T08:09:22.263Z,77.46
2022-10-06T08:11:52.718Z,77.02
2022-10-06T08:14:22.383Z,76.78
2022-10-06T08:16:51.536Z,76.85
2022-10-06T08:19:22.401Z,76.24
2022-10-06T08:21:52.285Z,76.58
2022-10-06T08:24:21.471Z,76.33
2022-10-06T08:26:50.789Z,76.18
2022-10-06T08:29:20.173Z,76.26
2022-10-06T08:31:49.756Z,75.68
2022-10-06T08:34:19.045Z,74.97
2022-10-06T08:37:08.639Z,74.77
2022-10-06T08:39:38.141Z,74.10
2022-10-06T08:42:07.310Z,73.41
2022-10-06T08:44:42.163Z,72.79
2022-10-06T08:47:17.946Z,72.28
2022-10-06T08:49:49.962Z,72.93
2022-10-06T08:52:52.076Z,73.57
2022-10-06T08:55:39.395Z,73.83
2022-10-06T08:58:29.406Z,73.74
2022-10-06T09:01:13.924Z,74.46
2022-10-06T09:03:47.280Z,74.73
2022-10-06T09:06:29.492Z,75.35
2022-10-06T09:09:11.293Z,75.55
2022-10-06T09:11:56.139Z,75.69
2022-10-06T09:14:33.709Z,75.61
2022-10-06T09:17:08.390Z,75.43
2022-10-06T09:19:45.555Z,75.08
2022-10-06T09:22:21.252Z,74.46
2022-10-06T09:24:58.112Z,73.84
2022-10-06T09:27:34.000Z,73.29
2022-10-06T09:30:04.711Z,73.02
2022-10-06T09:32:35.083Z,72.20
2022-10-06T09:35:18.084Z,71.88
2022-10-06T09:37:57.785Z,71.48
2022-10-06T09:40:39.016Z,71.25
2022-10-06T09:43:21.566Z,71.01
2022-10-06T09:45:51.688Z,71.44
2022-10-06T09:48:25.123Z,71.58
2022-10-06T09:51:15.103Z,72.07
2022-10-06T09:53:45.817Z,72.44
2022-10-06T09:56:19.918Z,72.66
2022-10-06T09:58:59.557Z,72.56
2022-10-06T10:01:32.292Z,72.39
2022-10-06T10:04:19.914Z,72.21
2022-10-06T10:06:50.611Z,71.95
2022-10-06T10:09:28.978Z,71.61
2022-10-06T10:12:31.136Z,71.54
2022-10-06T10:15:04.743Z,71.46
2022-10-06T10:17:41.528Z,71.01
2022-10-06T10:20:34.386Z,71.74
2022-10-06T10:23:19.576Z,71.48
2022-10-06T10:26:09.336Z,71.49
2022-10-06T10:29:14.517Z,70.29
2022-10-06T10:31:59.193Z,70.20
2022-10-06T10:34:59.788Z,69.52
2022-10-06T10:37:40.710Z,68.42
2022-10-06T10:40:23.668Z,66.67
2022-10-06T10:43:06.010Z,64.45
2022-10-06T10:45:41.819Z,61.84
2022-10-06T10:48:19.991Z,58.91
2022-10-06T10:50:58.531Z,57.97
2022-10-06T10:53:40.170Z,55.63
2022-10-06T10:56:16.267Z,54.87
2022-10-06T10:58:48.836Z,53.51
2022-10-06T11:01:26.722Z,52.97
2022-10-06T11:03:59.323Z,52.76
2022-10-06T11:07:13.867Z,54.12
2022-10-06T11:09:53.761Z,56.14
2022-10-06T11:12:52.916Z,56.89
2022-10-06T11:15:36.478Z,57.19
2022-10-06T11:18:21.421Z,58.18
2022-10-06T11:20:57.925Z,57.43
2022-10-06T11:23:43.365Z,56.81
2022-10-06T11:26:28.584Z,55.86
2022-10-06T11:29:06.257Z,54.72
2022-10-06T11:31:41.080Z,55.32
2022-10-06T11:34:12.203Z,55.43
2022-10-06T11:36:50.955Z,54.95
2022-10-06T11:39:25.100Z,55.46
2022-10-06T11:42:03.767Z,56.18
2022-10-06T11:44:40.397Z,57.44
2022-10-06T11:47:16.358Z,58.11
2022-10-06T11:49:56.195Z,58.25
2022-10-06T11:52:49.215Z,58.58
2022-10-06T11:55:22.234Z,58.49
2022-10-06T11:58:40.951Z,58.68
2022-10-06T12:01:06.488Z,57.46
2022-10-06T12:03:48.585Z,56.11
2022-10-06T12:07:05.725Z,56.71
2022-10-06T12:09:53.497Z,56.73
2022-10-06T12:13:05.361Z,56.35
2022-10-06T12:19:21.118Z,55.73
2022-10-06T12:22:01.584Z,56.28
2022-10-06T12:24:41.511Z,56.83
2022-10-06T12:27:40.369Z,57.78
2022-10-06T12:30:23.442Z,58.29
2022-10-06T12:32:55.846Z,58.34
2022-10-06T12:35:32.673Z,57.76
2022-10-06T12:38:06.334Z,56.26
2022-10-06T12:40:59.755Z,55.42
2022-10-06T12:43:55.255Z,54.42
2022-10-06T12:46:53.073Z,55.08
2022-10-06T12:49:46.774Z,55.03
2022-10-06T12:52:46.206Z,55.26
2022-10-06T12:55:36.332Z,55.83
2022-10-06T12:58:08.718Z,56.51
2022-10-06T13:00:42.521Z,57.42
2022-10-06T13:03:20.656Z,57.98
2022-10-06T13:05:57.269Z,57.83
2022-10-06T13:08:29.665Z,57.07
2022-10-06T13:11:22.522Z,55.98
2022-10-06T13:13:54.118Z,53.69
2022-10-06T13:16:26.302Z,53.36
2022-10-06T13:18:58.546Z,52.96
2022-10-06T13:21:30.293Z,52.19
2022-10-06T13:23:59.518Z,52.33
2022-10-06T13:26:34.814Z,52.73
2022-10-06T13:29:04.034Z,53.41
2022-10-06T13:31:35.292Z,55.05
2022-10-06T13:34:08.091Z,55.44
2022-10-06T13:36:39.904Z,56.45
2022-10-06T13:39:15.776Z,57.45
2022-10-06T13:41:49.125Z,57.96
2022-10-06T13:44:38.079Z,58.32
2022-10-06T13:47:15.905Z,60.60
2022-10-06T13:49:51.104Z,61.89
2022-10-06T13:52:26.462Z,63.52
2022-10-06T13:54:58.460Z,63.64
2022-10-06T13:57:45.708Z,65.42
2022-10-06T14:00:21.762Z,66.37
2022-10-06T14:02:54.953Z,66.97
2022-10-06T14:05:36.629Z,66.88
2022-10-06T14:08:22.165Z,66.43
2022-10-06T14:10:55.644Z,65.97
2022-10-06T14:13:29.366Z,64.95
2022-10-06T14:16:01.840Z,63.20
2022-10-06T14:18:37.021Z,64.36
2022-10-06T14:21:20.211Z,67.41
2022-10-06T14:23:52.096Z,68.08
2022-10-06T14:26:27.571Z,66.18
2022-10-06T14:28:59.171Z,65.53
2022-10-06T14:31:31.922Z,65.06
2022-10-06T14:34:02.381Z,64.65
2022-10-06T14:36:34.564Z,63.86
2022-10-06T14:39:06.397Z,62.13
2022-10-06T14:41:36.395Z,60.40
2022-10-06T14:44:11.432Z,58.56
2022-10-06T14:46:43.156Z,57.48
2022-10-06T14:49:14.117Z,57.11
2022-10-06T14:51:45.638Z,56.94
2022-10-06T14:54:15.055Z,56.52
2022-10-06T14:56:44.441Z,55.19
2022-10-06T14:59:18.025Z,53.40
2022-10-06T15:01:48.829Z,53.25
2022-10-06T15:04:20.627Z,53.78
2022-10-06T15:07:07.546Z,54.76
2022-10-06T15:09:36.996Z,56.46
2022-10-06T15:12:06.231Z,57.72
2022-10-06T15:14:40.066Z,58.64
2022-10-06T15:17:09.391Z,59.32
2022-10-06T15:19:40.388Z,60.24
2022-10-06T15:22:10.508Z,59.96
2022-10-06T15:24:39.655Z,59.52
2022-10-06T15:27:26.018Z,57.78
2022-10-06T15:29:57.514Z,57.28
2022-10-06T15:32:26.717Z,57.39
2022-10-06T15:34:55.968Z,57.95
2022-10-06T15:37:25.150Z,58.51
2022-10-06T15:39:54.376Z,58.82
2022-10-06T15:42:25.651Z,58.90
2022-10-06T15:44:56.246Z,59.04
2022-10-06T15:47:25.621Z,59.62
2022-10-06T15:49:54.691Z,59.44
2022-10-06T15:52:23.792Z,60.24
2022-10-06T15:54:53.008Z,59.96
2022-10-06T15:57:22.214Z,60.11
2022-10-06T15:59:51.571Z,60.48
2022-10-06T16:02:22.694Z,60.88
2022-10-06T16:05:17.839Z,61.20
2022-10-06T16:07:47.063Z,61.92
2022-10-06T16:10:16.444Z,61.88
2022-10-06T16:12:45.609Z,61.47
2022-10-06T16:15:14.963Z,60.81
2022-10-06T16:17:45.493Z,60.23
2022-10-06T16:20:16.662Z,60.20
2022-10-06T16:22:48.934Z,60.12
2022-10-06T16:25:19.016Z,60.10
2022-10-06T16:27:48.970Z,60.35
2022-10-06T16:30:20.367Z,60.50
2022-10-06T16:32:51.788Z,60.76
2022-10-06T16:35:21.667Z,61.07
2022-10-06T16:37:52.910Z,61.28
2022-10-06T16:40:23.611Z,61.30
2022-10-06T16:42:53.880Z,60.99
2022-10-06T16:45:23.363Z,61.22
2022-10-06T16:47:54.119Z,60.75
2022-10-06T16:50:23.287Z,60.68
2022-10-06T16:52:52.669Z,60.76
2022-10-06T16:55:21.803Z,60.58
2022-10-06T16:57:50.952Z,60.74
2022-10-06T17:00:20.355Z,61.24
2022-10-06T17:02:49.502Z,61.07
2022-10-06T17:05:20.105Z,61.06
2022-10-06T17:07:49.221Z,61.01
2022-10-06T17:10:21.180Z,61.25
2022-10-06T17:12:50.706Z,61.08
2022-10-06T17:15:20.096Z,61.27
2022-10-06T17:17:49.371Z,61.53
2022-10-06T17:20:20.155Z,61.40
2022-10-06T17:22:50.410Z,61.73
2022-10-06T17:25:19.798Z,62.16
2022-10-06T17:27:49.013Z,62.49
2022-10-06T17:30:18.341Z,61.81
2022-10-06T17:32:48.051Z,61.79
2022-10-06T17:35:20.037Z,62.10
2022-10-06T17:37:51.397Z,62.15
2022-10-06T17:40:20.795Z,62.34
2022-10-06T17:42:50.207Z,61.74
2022-10-06T17:45:21.362Z,61.81
2022-10-06T17:47:51.847Z,62.09
2022-10-06T17:50:21.265Z,62.31
2022-10-06T17:52:51.873Z,62.47
2022-10-06T17:55:21.496Z,62.63
2022-10-06T17:57:50.673Z,63.03
2022-10-06T18:00:20.163Z,63.34
2022-10-06T18:02:49.516Z,63.65
2022-10-06T18:05:19.290Z,64.17
2022-10-06T18:07:48.498Z,64.19
2022-10-06T18:10:36.519Z,64.08
2022-10-06T18:13:07.310Z,64.01
2022-10-06T18:15:37.594Z,63.98
2022-10-06T18:18:07.481Z,64.35
2022-10-06T18:20:41.349Z,64.34
2022-10-06T18:23:10.764Z,64.37
2022-10-06T18:25:41.417Z,64.24
2022-10-06T18:28:12.092Z,64.82
2022-10-06T18:30:41.295Z,64.97
2022-10-06T18:36:12.363Z,66.31
2022-10-06T18:38:45.324Z,66.51
2022-10-06T18:41:18.567Z,66.47
2022-10-06T18:43:47.865Z,67.05
2022-10-06T18:46:36.394Z,67.84
2022-10-06T18:49:12.183Z,67.91
2022-10-06T18:51:44.892Z,67.97
2022-10-06T18:54:16.575Z,67.78
2022-10-06T18:56:51.665Z,67.41
2022-10-06T18:59:26.311Z,67.09
2022-10-06T19:01:57.982Z,66.95
2022-10-06T19:04:28.134Z,66.22
2022-10-06T19:06:57.682Z,66.34
2022-10-06T19:09:27.678Z,66.22
2022-10-06T19:11:59.152Z,66.13
2022-10-06T19:14:31.729Z,66.66
2022-10-06T19:17:03.899Z,66.82
2022-10-06T19:19:34.157Z,66.62
2022-10-06T19:22:05.643Z,66.51
2022-10-06T19:24:39.006Z,66.17
2022-10-06T19:27:12.761Z,66.28
2022-10-06T19:29:46.083Z,66.16
2022-10-06T19:32:18.007Z,66.30
2022-10-06T19:34:48.580Z,66.15
2022-10-06T19:37:18.327Z,65.92
2022-10-06T19:39:50.263Z,66.14
2022-10-06T19:42:38.947Z,66.02
2022-10-06T19:45:11.919Z,66.31
2022-10-06T19:47:42.149Z,66.53
2022-10-06T19:50:12.812Z,66.25
2022-10-06T19:52:42.520Z,66.69
2022-10-06T19:55:12.886Z,66.97
2022-10-06T19:57:43.852Z,67.22
2022-10-06T20:00:15.033Z,66.92
2022-10-06T20:02:45.092Z,67.08
2022-10-06T20:05:16.257Z,67.26
2022-10-06T20:07:47.927Z,67.21
2022-10-06T20:10:17.230Z,67.93
2022-10-06T20:12:48.391Z,67.81
2022-10-06T20:15:17.790Z,67.90
2022-10-06T20:17:47.936Z,67.83
2022-10-06T20:20:18.983Z,67.94
2022-10-06T20:22:49.857Z,67.73
2022-10-06T20:25:19.202Z,67.72
2022-10-06T20:27:50.340Z,67.58
2022-10-06T20:30:19.923Z,67.67
2022-10-06T20:32:49.023Z,67.32
2022-10-06T20:35:18.362Z,67.58
2022-10-06T20:37:47.652Z,67.73
2022-10-06T20:40:34.372Z,67.58
2022-10-06T20:43:04.965Z,67.75
2022-10-06T20:45:34.153Z,68.24
2022-10-06T20:48:03.511Z,68.03
2022-10-06T20:50:32.635Z,67.90
2022-10-06T20:53:01.808Z,68.57
2022-10-06T20:55:31.116Z,68.73
2022-10-06T20:58:00.292Z,68.41
2022-10-06T21:00:30.951Z,68.11
2022-10-06T21:03:00.162Z,68.27
2022-10-06T21:05:33.271Z,67.73
2022-10-06T21:08:02.606Z,67.90
2022-10-06T21:10:31.809Z,68.04
2022-10-06T21:13:01.295Z,67.81
2022-10-06T21:15:32.070Z,67.84
2022-10-06T21:18:01.353Z,67.87
2022-10-06T21:20:30.757Z,67.80
2022-10-06T21:22:59.904Z,68.12
2022-10-06T21:25:29.569Z,67.57
2022-10-06T21:27:58.858Z,67.83
2022-10-06T21:30:28.006Z,67.89
2022-10-06T21:32:58.764Z,68.29
2022-10-06T21:35:28.119Z,68.15
2022-10-06T21:37:57.329Z,68.39
2022-10-06T21:40:26.494Z,68.66
2022-10-06T21:42:55.861Z,68.62
2022-10-06T21:45:29.605Z,68.82
2022-10-06T21:48:02.801Z,68.56
2022-10-06T21:50:31.961Z,68.75
2022-10-06T21:53:01.102Z,68.69
2022-10-06T21:55:30.279Z,68.33
2022-10-06T21:57:59.517Z,68.78
2022-10-06T22:00:28.707Z,68.52
2022-10-06T22:02:58.053Z,69.14
2022-10-06T22:05:28.805Z,69.19
2022-10-06T22:07:58.048Z,69.39
2022-10-06T22:10:27.378Z,69.64
2022-10-06T22:12:56.573Z,69.62
2022-10-06T22:15:25.809Z,69.45
2022-10-06T22:17:55.052Z,69.61
2022-10-06T22:20:24.413Z,69.81
2022-10-06T22:22:54.936Z,69.55
2022-10-06T22:25:24.481Z,69.91
2022-10-06T22:27:53.747Z,69.35
2022-10-06T22:30:23.084Z,69.66
2022-10-06T22:32:52.630Z,69.56
2022-10-06T22:35:21.823Z,69.40
2022-10-06T22:37:51.206Z,70.27
2022-10-06T22:40:21.926Z,69.96
2022-10-06T22:42:51.256Z,70.47
2022-10-06T22:45:20.409Z,70.37
2022-10-06T22:47:49.593Z,70.50
2022-10-06T22:50:18.681Z,71.13
2022-10-06T22:52:47.898Z,70.37
2022-10-06T22:55:17.248Z,70.57
2022-10-06T22:57:47.847Z,70.83
2022-10-06T23:00:17.707Z,70.32
2022-10-06T23:02:46.797Z,70.66
2022-10-06T23:05:16.154Z,71.03
2022-10-06T23:07:45.689Z,70.57
2022-10-06T23:10:15.249Z,70.91
2022-10-06T23:12:44.352Z,70.92
2022-10-06T23:15:15.373Z,71.06
2022-10-06T23:17:45.269Z,71.33
2022-10-06T23:20:15.575Z,71.41
2022-10-06T23:22:44.987Z,71.42
2022-10-06T23:25:14.255Z,71.50
2022-10-06T23:27:43.692Z,71.70
2022-10-06T23:30:15.304Z,71.51
2022-10-06T23:32:44.536Z,71.07
2022-10-06T23:35:13.738Z,70.89
2022-10-06T23:37:43.252Z,70.92
2022-10-06T23:40:12.948Z,71.31
2022-10-06T23:42:42.177Z,71.26
2022-10-06T23:45:12.169Z,70.90
2022-10-06T23:47:43.057Z,71.09
2022-10-06T23:50:12.378Z,70.81
2022-10-06T23:52:41.586Z,70.50
2022-10-06T23:55:11.133Z,70.89
2022-10-06T23:57:40.296Z,70.23
